METAR ET TAF INFORMATION
METAR FOR LIEE
ADDS - METARS form results

(2156 UTC 02 December 2022)
Data provider http://aviationweather.gov/metar/data/
 
METAR text: LIEE 022150Z VRB02KT 9999 FEW030 13/09 Q1011
Conditions at: LIEE (CAGLIARI/ELMAS(A, IT) observed 2150 UTC 02 December 2022
Temperature: 13.0°C (55°F)
Dewpoint: 9.0°C (48°F) [RH = 77%]
Pressure (altimeter): 29.85 inches Hg (1011.0 mb)
Winds: variable direction winds at 2 MPH (2 knots; 1.0 m/s)
Visibility: 6 or more miles (10+ km)
Ceiling: at least 12,000 feet AGL
Clouds: few clouds at 3000 feet AGL
Weather: no significant weather observed at this time

METAR text: LIEE 022120Z VRB02KT 9999 FEW050 13/10 Q1011
Conditions at: LIEE (CAGLIARI/ELMAS(A, IT) observed 2120 UTC 02 December 2022
Temperature: 13.0°C (55°F)
Dewpoint: 10.0°C (50°F) [RH = 82%]
Pressure (altimeter): 29.85 inches Hg (1011.0 mb)
Winds: variable direction winds at 2 MPH (2 knots; 1.0 m/s)
Visibility: 6 or more miles (10+ km)
Ceiling: at least 12,000 feet AGL
Clouds: few clouds at 5000 feet AGL
Weather: no significant weather observed at this time

Forecast for: LIEE (CAGLIARI/ELMAS(A, IT)
Text: TAF LIEE 021700Z 0218/0318 13010KT 9999 FEW030
Forecast period: 1800 UTC 02 December 2022 to 1800 UTC 03 December 2022
Forecast type: FROM: standard forecast or significant change
Winds: from the SE (130 degrees) at 12 MPH (10 knots; 5.1 m/s)
Visibility: 6 or more miles (10+ km)
Ceiling: at least 12,000 feet AGL
Clouds: few clouds at 3000 feet AGL
Weather: no significant weather forecast for this period

 AÉROPORT DE AÉROPORT

 INFORMATIONS DE PISTE
Piste 14 Longueur de la piste 9196 ft Largeur de la piste 148 ft
Élévation de la piste 9 ft Seuil de la piste déplacés 0 ft Runway heading 138
Piste 32 Longueur de la piste 9196 ft Largeur de la piste 148 ft
Élévation de la piste 4 ft Seuil de la piste déplacés 0 ft Runway heading 318

 AÉROPORT FRÉQUENCES
Type APP Nom CAGLIARI A Féquence 118.75 MHZ
Type GND Nom Elmas GND Féquence 125.425 MHZ
Type MISC Nom SAR Féquence 123.1 MHZ
Type TWR Nom TWR Féquence 120.6 MHZ

 SIDA DE NAVIGATION
Type VOR-DME Nom Cagliari Féquence 113400 KHZ
Type NDB Nom Cagliari Féquence 371 KHZ



Powered by Virtual Airlines Manager [v2.6.2]